Time;durP1;ratioP1;P1;durP2;ratioP2;P2;SDS_P1;SDS_P2;PMS_P1;PMS_P2;Temp;Humidity;BMP_temperature;BMP_pressure;BME280_temperature;BME280_humidity;BME280_pressure;Samples;Min_cycle;Max_cycle;Signal;HPM_P1;HPM_P2
2023/10/18 00:02:54;;;;;;;4.90;0.60;;;20.50;76.20;;;;;;4995251;28;20394;-67
2023/10/18 00:05:23;;;;;;;5.18;1.17;;;20.30;77.10;;;;;;4998854;28;20128;-67
2023/10/18 00:07:56;;;;;;;5.50;1.20;;;20.30;76.90;;;;;;5001735;28;20041;-67
2023/10/18 00:10:25;;;;;;;6.38;3.40;;;20.20;77.30;;;;;;5000802;28;20508;-67
2023/10/18 00:12:52;;;;;;;4.25;1.25;;;20.10;78.80;;;;;;4998185;28;20026;-67
2023/10/18 00:15:23;;;;;;;3.85;0.63;;;20.30;78.20;;;;;;5000277;28;20026;-68
2023/10/18 00:17:50;;;;;;;3.83;0.60;;;20.20;77.20;;;;;;5004257;28;20030;-68
2023/10/18 00:20:21;;;;;;;3.90;0.50;;;20.20;77.30;;;;;;5000686;28;20533;-66
2023/10/18 00:22:48;;;;;;;3.17;0.50;;;20.10;77.70;;;;;;4998773;28;20026;-67
2023/10/18 00:25:16;;;;;;;5.05;0.50;;;20.00;77.90;;;;;;4988590;28;20086;-67
2023/10/18 00:27:45;;;;;;;3.05;0.63;;;20.00;78.20;;;;;;5009313;28;20042;-68
2023/10/18 00:30:13;;;;;;;2.58;0.63;;;20.00;76.60;;;;;;5006377;28;20069;-67
2023/10/18 00:32:46;;;;;;;7.95;0.70;;;20.00;78.20;;;;;;4996326;28;20022;-68
2023/10/18 00:35:20;;;;;;;2.35;0.70;;;20.10;78.00;;;;;;4997504;28;20561;-67
2023/10/18 00:37:49;;;;;;;5.53;0.90;;;20.10;77.70;;;;;;5001551;28;20468;-67
2023/10/18 00:43:20;;;;;;;4.88;0.82;;;20.10;77.40;;;;;;4984966;28;20065;-67
2023/10/18 00:45:50;;;;;;;6.47;1.17;;;20.20;79.00;;;;;;5003100;28;20096;-67
2023/10/18 00:48:28;;;;;;;2.90;0.90;;;20.20;77.90;;;;;;5001493;28;20054;-68
2023/10/18 00:50:58;;;;;;;6.45;1.05;;;20.20;76.20;;;;;;4983838;28;20524;-67
2023/10/18 00:53:30;;;;;;;2.88;0.70;;;20.20;76.50;;;;;;5000087;28;20109;-67
2023/10/18 00:56:05;;;;;;;3.05;0.60;;;20.20;76.90;;;;;;4996898;28;20026;-67
2023/10/18 00:58:39;;;;;;;3.45;0.80;;;20.30;76.00;;;;;;4995453;28;20127;-68
2023/10/18 01:01:10;;;;;;;4.45;1.05;;;20.50;75.40;;;;;;5007638;28;20057;-68
2023/10/18 01:03:45;;;;;;;4.28;0.95;;;20.70;75.40;;;;;;4994131;28;20030;-67
2023/10/18 01:06:20;;;;;;;4.07;0.40;;;21.10;73.90;;;;;;4996811;28;20483;-67
2023/10/18 01:08:49;;;;;;;4.32;0.50;;;21.30;73.50;;;;;;4997019;28;20038;-67
2023/10/18 01:11:30;;;;;;;1.95;0.60;;;21.60;72.40;;;;;;4993405;28;20038;-67
2023/10/18 01:14:01;;;;;;;5.55;0.75;;;21.60;71.90;;;;;;4993751;28;20026;-67
2023/10/18 01:16:31;;;;;;;4.07;0.60;;;21.80;71.80;;;;;;4999984;28;20125;-67
2023/10/18 01:18:58;;;;;;;4.10;0.93;;;22.00;70.70;;;;;;4997306;28;20026;-67
2023/10/18 01:21:26;;;;;;;3.05;0.40;;;22.10;70.50;;;;;;5004090;28;20030;-68
2023/10/18 01:23:55;;;;;;;3.35;0.60;;;22.40;68.40;;;;;;5000715;28;20336;-67
2023/10/18 01:26:28;;;;;;;4.07;0.98;;;23.00;64.60;;;;;;4994852;28;20026;-67
2023/10/18 01:28:57;;;;;;;5.63;0.82;;;23.10;64.60;;;;;;5001256;28;20516;-67
2023/10/18 01:31:25;;;;;;;3.13;0.40;;;23.60;66.10;;;;;;4999122;28;20026;-68
2023/10/18 01:33:53;;;;;;;5.75;0.77;;;24.60;62.40;;;;;;5002260;28;20434;-67
2023/10/18 01:36:23;;;;;;;2.33;0.47;;;25.00;61.60;;;;;;5007126;28;20465;-68
2023/10/18 01:38:54;;;;;;;5.25;0.90;;;25.50;60.80;;;;;;4999094;28;20511;-68
2023/10/18 01:41:34;;;;;;;1.15;0.60;;;26.00;61.00;;;;;;5006713;28;20034;-68
2023/10/18 01:46:46;;;;;;;3.00;0.70;;;26.40;55.90;;;;;;5002718;28;20129;-68
2023/10/18 01:49:19;;;;;;;4.63;0.77;;;25.80;56.40;;;;;;4998079;28;20125;-68
2023/10/18 01:51:54;;;;;;;2.17;0.60;;;25.10;57.40;;;;;;5003942;28;20022;-68
2023/10/18 01:54:25;;;;;;;3.38;0.90;;;24.40;59.80;;;;;;4995714;28;20122;-68
2023/10/18 01:56:57;;;;;;;2.83;0.43;;;23.90;62.10;;;;;;4993259;28;20037;-67
2023/10/18 01:59:28;;;;;;;3.35;0.52;;;24.10;60.80;;;;;;4996705;28;20053;-67
2023/10/18 02:02:00;;;;;;;5.38;0.73;;;23.70;60.80;;;;;;5002242;28;20033;-69
2023/10/18 02:04:30;;;;;;;3.70;0.45;;;23.70;61.00;;;;;;5009760;28;20051;-68
2023/10/18 02:07:01;;;;;;;5.65;1.40;;;23.60;62.30;;;;;;5011510;28;20030;-68
2023/10/18 02:12:36;;;;;;;6.30;0.90;;;23.80;61.30;;;;;;4951769;28;20415;-68
2023/10/18 02:15:06;;;;;;;3.10;0.70;;;23.60;60.30;;;;;;4978200;28;20478;-67
2023/10/18 02:17:34;;;;;;;4.18;0.93;;;23.30;61.60;;;;;;4997410;28;20030;-67
2023/10/18 02:20:12;;;;;;;3.30;1.10;;;23.60;62.20;;;;;;5007042;28;20033;-67
2023/10/18 02:22:42;;;;;;;7.28;1.00;;;23.90;62.10;;;;;;4980740;28;20034;-67
2023/10/18 02:25:19;;;;;;;5.68;0.85;;;24.40;61.10;;;;;;4997015;28;20037;-66
2023/10/18 02:27:51;;;;;;;6.30;0.70;;;24.60;57.80;;;;;;4990654;28;20065;-68
2023/10/18 02:30:19;;;;;;;3.50;0.75;;;24.50;58.60;;;;;;4995323;28;20030;-66
2023/10/18 02:32:48;;;;;;;4.65;0.60;;;25.10;57.80;;;;;;5002009;28;20030;-68
2023/10/18 02:35:19;;;;;;;2.25;0.60;;;25.50;54.10;;;;;;4998588;28;20069;-67
2023/10/18 02:37:46;;;;;;;2.08;0.47;;;25.00;56.70;;;;;;4985038;28;20031;-66
2023/10/18 02:40:29;;;;;;;4.40;0.80;;;24.70;57.80;;;;;;4996606;28;20018;-66
2023/10/18 02:43:07;;;;;;;3.90;0.57;;;24.90;59.10;;;;;;5004028;28;20120;-67
2023/10/18 02:45:34;;;;;;;3.33;0.52;;;25.80;59.10;;;;;;4999166;28;20046;-68
2023/10/18 02:48:02;;;;;;;4.32;0.82;;;26.50;57.10;;;;;;4992574;28;20074;-67
2023/10/18 02:50:31;;;;;;;5.90;0.70;;;26.20;53.30;;;;;;4993727;28;20077;-67
2023/10/18 02:53:00;;;;;;;4.57;0.80;;;25.20;53.70;;;;;;4989269;28;20364;-66
2023/10/18 02:55:27;;;;;;;3.72;0.77;;;24.40;55.50;;;;;;5004355;28;20030;-67
2023/10/18 02:57:56;;;;;;;6.13;1.10;;;24.00;57.10;;;;;;4998192;28;20069;-67
2023/10/18 03:00:25;;;;;;;4.88;0.90;;;23.70;57.40;;;;;;5003973;28;20255;-67
2023/10/18 03:02:54;;;;;;;3.90;0.75;;;23.60;57.60;;;;;;5004883;28;20029;-67
2023/10/18 03:05:24;;;;;;;1.98;0.47;;;23.60;57.00;;;;;;4995802;28;20487;-69
2023/10/18 03:07:51;;;;;;;2.97;0.70;;;23.40;57.50;;;;;;4998073;28;20061;-67
2023/10/18 03:10:27;;;;;;;2.42;0.52;;;23.20;57.00;;;;;;5001582;28;20478;-65
2023/10/18 03:12:54;;;;;;;6.40;1.77;;;23.30;57.60;;;;;;4997126;28;20041;-67
2023/10/18 03:15:23;;;;;;;8.32;1.00;;;24.30;57.90;;;;;;5007775;28;20033;-68
2023/10/18 03:17:50;;;;;;;4.25;0.80;;;24.60;55.10;;;;;;5005471;28;20029;-68
2023/10/18 03:20:22;;;;;;;4.43;0.98;;;25.10;55.20;;;;;;5005036;28;20025;-68
2023/10/18 03:22:51;;;;;;;6.25;1.25;;;25.40;52.00;;;;;;4989579;28;20466;-67
2023/10/18 03:25:30;;;;;;;3.67;0.90;;;25.40;51.80;;;;;;5001054;28;20026;-67
2023/10/18 03:27:58;;;;;;;3.63;0.65;;;25.70;49.90;;;;;;4996921;28;20512;-68
2023/10/18 03:30:47;;;;;;;4.78;0.90;;;25.10;50.40;;;;;;5000187;28;20030;-68
2023/10/18 03:33:13;;;;;;;6.40;0.77;;;24.50;51.50;;;;;;5005907;28;20080;-67
2023/10/18 03:35:41;;;;;;;6.43;0.70;;;24.30;51.80;;;;;;4995459;28;20109;-67
2023/10/18 03:38:30;;;;;;;2.65;0.60;;;24.80;50.90;;;;;;4997026;28;20471;-68
2023/10/18 03:41:07;;;;;;;7.10;0.73;;;25.40;51.30;;;;;;5005236;28;20029;-68
2023/10/18 03:43:36;;;;;;;4.35;0.32;;;26.10;49.90;;;;;;4992692;28;20470;-68
2023/10/18 03:46:13;;;;;;;4.13;0.60;;;25.50;49.90;;;;;;4978385;28;20034;-68
2023/10/18 03:48:45;;;;;;;2.65;0.63;;;24.70;50.40;;;;;;4995227;28;20549;-67
2023/10/18 03:51:24;;;;;;;4.20;0.85;;;24.00;51.80;;;;;;5008558;28;20129;-66
2023/10/18 03:53:55;;;;;;;2.83;0.60;;;23.60;52.50;;;;;;4997090;28;20459;-67
2023/10/18 03:56:23;;;;;;;5.28;0.93;;;23.80;53.30;;;;;;4993767;28;20436;-67
2023/10/18 03:59:00;;;;;;;2.53;0.70;;;23.80;52.70;;;;;;4998617;28;20438;-68
2023/10/18 04:01:28;;;;;;;;;;;23.50;52.70;;;;;;4989515;28;20092;-68
2023/10/18 04:03:56;;;;;;;2.65;0.70;;;23.50;53.20;;;;;;4992472;28;19913;-67
2023/10/18 04:06:28;;;;;;;4.80;0.75;;;24.10;53.10;;;;;;5007962;28;20040;-68
2023/10/18 04:08:58;;;;;;;7.07;0.95;;;24.80;52.10;;;;;;5008273;28;20046;-68
2023/10/18 04:11:28;;;;;;;9.55;0.80;;;25.30;51.70;;;;;;5003732;28;20530;-69
2023/10/18 04:13:56;;;;;;;4.43;1.05;;;25.70;50.20;;;;;;4993671;28;20030;-68
2023/10/18 04:16:30;;;;;;;5.72;0.88;;;25.90;48.40;;;;;;5003403;28;20065;-67
2023/10/18 04:18:58;;;;;;;2.55;0.60;;;26.10;48.40;;;;;;5005199;28;20028;-68
2023/10/18 04:21:26;;;;;;;2.55;0.60;;;25.90;47.70;;;;;;4994202;28;20034;-67
2023/10/18 04:23:56;;;;;;;4.38;0.73;;;25.30;48.20;;;;;;5005513;28;20045;-67
2023/10/18 04:26:27;;;;;;;4.28;0.80;;;25.20;48.80;;;;;;5007107;28;20065;-68
2023/10/18 04:29:10;;;;;;;6.13;0.80;;;24.90;50.10;;;;;;5008377;28;20033;-67
2023/10/18 04:31:37;;;;;;;7.90;0.88;;;25.20;50.10;;;;;;5002326;28;20030;-67
2023/10/18 04:34:05;;;;;;;3.30;0.70;;;25.60;50.00;;;;;;4974715;28;20447;-67
2023/10/18 04:36:34;;;;;;;5.18;0.70;;;26.00;49.30;;;;;;4993741;28;20121;-67
2023/10/18 04:39:05;;;;;;;4.40;0.90;;;25.70;48.40;;;;;;4994683;28;20027;-67
2023/10/18 04:41:33;;;;;;;6.10;0.88;;;25.70;49.00;;;;;;5008660;28;20104;-67
2023/10/18 04:44:20;;;;;;;5.00;1.08;;;25.70;49.70;;;;;;5002778;28;20129;-69
2023/10/18 04:46:47;;;;;;;5.72;1.10;;;25.50;49.40;;;;;;4996785;28;20396;-68
2023/10/18 04:49:16;;;;;;;4.88;0.52;;;25.00;49.30;;;;;;5001513;28;20517;-66
2023/10/18 04:51:44;;;;;;;5.43;1.10;;;24.40;50.50;;;;;;4989474;28;20031;-66
2023/10/18 04:54:17;;;;;;;4.80;0.90;;;23.90;52.10;;;;;;5004442;28;20501;-66
2023/10/18 04:56:46;;;;;;;6.78;1.00;;;24.00;51.30;;;;;;5005083;28;20116;-67
2023/10/18 05:04:28;;;;;;;;;;;25.10;49.20;;;;;;5007283;28;20030;-67
2023/10/18 05:07:00;;;;;;;4.18;0.68;;;24.90;50.10;;;;;;4998574;28;20387;-67
2023/10/18 05:09:41;;;;;;;4.47;0.63;;;24.90;51.20;;;;;;4995859;28;20089;-67
2023/10/18 05:19:58;;;;;;;4.75;1.08;;;24.70;50.00;;;;;;5000894;28;20031;-67
2023/10/18 05:22:28;;;;;;;4.15;0.88;;;24.80;50.30;;;;;;4991633;28;20483;-67
2023/10/18 05:28:15;;;;;;;6.68;0.70;;;24.80;49.20;;;;;;4995503;28;20042;-67
2023/10/18 05:43:59;;;;;;;7.57;0.85;;;24.40;51.10;;;;;;5007503;28;20457;-67
2023/10/18 05:46:27;;;;;;;6.78;0.98;;;24.30;51.70;;;;;;5014485;28;20475;-67
2023/10/18 05:49:00;;;;;;;5.28;0.90;;;24.20;52.30;;;;;;5012510;28;20036;-66
2023/10/18 05:51:34;;;;;;;4.10;0.80;;;24.20;51.90;;;;;;5014149;28;20033;-67
2023/10/18 05:54:04;;;;;;;5.28;0.70;;;24.10;52.60;;;;;;5004181;28;20034;-67
2023/10/18 05:56:32;;;;;;;8.20;1.48;;;24.10;52.10;;;;;;4998004;28;20022;-67
2023/10/18 06:01:54;;;;;;;9.27;1.08;;;24.00;52.30;;;;;;5011810;28;20030;-67
2023/10/18 06:04:24;;;;;;;5.93;1.10;;;23.80;52.40;;;;;;5003939;28;20077;-66
2023/10/18 06:06:59;;;;;;;4.80;0.88;;;23.80;53.30;;;;;;4993159;28;20053;-66
2023/10/18 06:09:27;;;;;;;4.82;0.85;;;23.80;52.80;;;;;;4992831;28;20439;-66
2023/10/18 06:11:56;;;;;;;6.00;1.08;;;23.60;52.70;;;;;;4992704;28;20034;-66
2023/10/18 06:14:44;;;;;;;4.47;0.75;;;23.50;53.40;;;;;;4993904;28;20132;-67
2023/10/18 06:17:12;;;;;;;3.38;0.73;;;23.30;53.20;;;;;;4992883;28;20026;-66
2023/10/18 06:19:45;;;;;;;6.07;0.80;;;23.10;54.00;;;;;;5012513;28;20048;-66
2023/10/18 06:22:38;;;;;;;5.68;1.30;;;23.00;54.40;;;;;;5012376;28;20032;-65
2023/10/18 06:25:09;;;;;;;6.47;0.70;;;22.50;54.80;;;;;;5010683;28;20025;-66
2023/10/18 06:27:40;;;;;;;5.03;0.80;;;22.30;55.10;;;;;;5012452;28;20105;-66
2023/10/18 06:30:17;;;;;;;8.00;1.20;;;22.20;55.50;;;;;;5012043;28;20026;-66
2023/10/18 06:32:47;;;;;;;3.97;0.82;;;22.30;56.00;;;;;;4992556;28;20121;-66
2023/10/18 06:35:19;;;;;;;4.93;0.55;;;22.40;55.50;;;;;;4998019;28;20030;-65
2023/10/18 06:37:47;;;;;;;5.70;0.93;;;22.50;56.00;;;;;;4994157;28;20034;-66
2023/10/18 06:43:01;;;;;;;4.50;0.60;;;22.30;55.70;;;;;;4992812;28;20037;-66
2023/10/18 06:45:33;;;;;;;7.70;1.08;;;22.00;56.10;;;;;;4992374;28;20031;-66
2023/10/18 06:48:03;;;;;;;5.00;0.63;;;21.90;57.00;;;;;;4999859;28;20463;-70
2023/10/18 06:50:32;;;;;;;5.25;1.00;;;21.90;57.20;;;;;;5012171;28;20030;-66
2023/10/18 06:53:00;;;;;;;6.55;1.02;;;21.80;57.20;;;;;;5011355;28;20030;-66
2023/10/18 06:55:41;;;;;;;4.05;0.93;;;21.70;57.30;;;;;;5003056;28;20383;-67
2023/10/18 06:58:22;;;;;;;3.87;0.67;;;21.50;57.80;;;;;;4887180;28;3058400;-66
2023/10/18 07:01:03;;;;;;;4.18;0.70;;;21.60;58.10;;;;;;4993593;28;20118;-67
2023/10/18 07:03:34;;;;;;;10.43;0.90;;;21.40;58.40;;;;;;5003051;28;20030;-68
2023/10/18 07:06:24;;;;;;;6.47;1.02;;;21.40;58.60;;;;;;4999614;28;20029;-67
2023/10/18 07:08:52;;;;;;;3.72;0.80;;;21.40;58.60;;;;;;4999250;28;20038;-67
2023/10/18 07:11:21;;;;;;;5.18;0.90;;;21.20;58.90;;;;;;4996928;28;20021;-67
2023/10/18 07:13:54;;;;;;;11.00;1.10;;;21.20;59.20;;;;;;4987914;28;20072;-67
2023/10/18 07:19:21;;;;;;;7.68;1.02;;;20.80;60.40;;;;;;4992820;28;20698;-67
2023/10/18 07:21:48;;;;;;;5.97;0.70;;;20.60;61.10;;;;;;4997085;28;20021;-66
2023/10/18 07:24:20;;;;;;;5.78;0.90;;;20.60;61.00;;;;;;5004314;28;20512;-66
2023/10/18 07:26:48;;;;;;;5.60;1.15;;;20.60;61.30;;;;;;4999348;28;20021;-66
2023/10/18 07:29:17;;;;;;;6.25;1.00;;;20.50;61.30;;;;;;5011353;28;20088;-66
2023/10/18 07:31:47;;;;;;;8.35;1.10;;;20.40;61.80;;;;;;5005597;28;20408;-66
2023/10/18 07:34:18;;;;;;;6.28;0.98;;;20.30;62.30;;;;;;5012721;28;20025;-66
2023/10/18 07:36:46;;;;;;;6.95;1.42;;;20.20;62.50;;;;;;5006269;28;20109;-65
2023/10/18 07:39:16;;;;;;;6.50;1.10;;;19.90;63.30;;;;;;5001496;28;20053;-66
2023/10/18 07:41:44;;;;;;;7.43;0.95;;;19.80;63.70;;;;;;5011583;28;20043;-66
2023/10/18 07:44:14;;;;;;;5.20;1.27;;;19.70;64.10;;;;;;4994928;28;20092;-66
2023/10/18 07:46:41;;;;;;;5.57;1.23;;;19.70;64.70;;;;;;5007127;28;20041;-66
2023/10/18 07:49:13;;;;;;;8.55;1.10;;;19.70;64.50;;;;;;4993587;28;20445;-67
2023/10/18 07:51:59;;;;;;;4.30;1.15;;;19.50;64.90;;;;;;4979840;28;20097;-66
2023/10/18 07:54:27;;;;;;;7.03;1.17;;;19.40;65.60;;;;;;4996289;28;20026;-66
2023/10/18 07:56:54;;;;;;;4.50;0.93;;;19.20;66.00;;;;;;4997225;28;20113;-66
2023/10/18 07:59:32;;;;;;;3.58;0.30;;;19.20;66.30;;;;;;4996474;28;20046;-67
2023/10/18 08:02:13;;;;;;;7.20;0.88;;;19.00;66.70;;;;;;4992888;28;20026;-69
2023/10/18 08:04:42;;;;;;;5.38;0.70;;;19.00;67.20;;;;;;5004174;28;20378;-66
2023/10/18 08:07:22;;;;;;;8.30;0.80;;;19.00;67.50;;;;;;5012326;28;20033;-67
2023/10/18 08:09:51;;;;;;;2.35;0.50;;;18.90;67.70;;;;;;4991170;28;20395;-67
2023/10/18 08:12:39;;;;;;;3.10;0.60;;;18.90;67.80;;;;;;4992379;28;20030;-66
2023/10/18 08:15:13;;;;;;;5.75;0.50;;;18.90;67.90;;;;;;4991569;28;20443;-67
2023/10/18 08:17:43;;;;;;;3.90;0.70;;;18.70;68.20;;;;;;5004777;28;20026;-66
2023/10/18 08:22:55;;;;;;;4.78;0.95;;;18.60;68.90;;;;;;5005111;28;20419;-68
2023/10/18 08:25:29;;;;;;;8.52;1.50;;;18.50;69.10;;;;;;5004559;28;20462;-67
2023/10/18 08:27:56;;;;;;;6.55;1.67;;;18.50;69.70;;;;;;5005344;28;20125;-66
2023/10/18 08:30:24;;;;;;;5.22;1.38;;;18.40;69.90;;;;;;5001001;28;20411;-66
2023/10/18 08:32:52;;;;;;;7.75;2.10;;;18.30;70.10;;;;;;4991671;28;20030;-66
2023/10/18 08:35:20;;;;;;;5.10;1.50;;;18.30;70.40;;;;;;5003756;28;20022;-67
2023/10/18 08:37:48;;;;;;;8.07;1.80;;;18.30;70.90;;;;;;5009526;28;20394;-67
2023/10/18 08:40:27;;;;;;;7.35;1.98;;;18.20;71.20;;;;;;4994374;28;20118;-67
2023/10/18 08:43:23;;;;;;;4.80;1.08;;;18.20;71.50;;;;;;4996982;28;20366;-66
2023/10/18 08:45:53;;;;;;;9.90;1.20;;;18.20;71.80;;;;;;4975426;28;20041;-67
2023/10/18 08:48:31;;;;;;;6.22;1.27;;;18.20;71.80;;;;;;4993584;28;20104;-66
2023/10/18 08:51:02;;;;;;;4.90;1.20;;;18.20;72.30;;;;;;4995006;28;20037;-67
2023/10/18 08:53:31;;;;;;;6.10;1.77;;;18.20;72.50;;;;;;4979877;28;20030;-68
2023/10/18 08:55:59;;;;;;;7.68;1.55;;;18.20;72.80;;;;;;5000698;28;20026;-67
2023/10/18 08:58:30;;;;;;;9.25;1.30;;;18.20;72.90;;;;;;4973928;28;20060;-67
2023/10/18 09:03:29;;;;;;;10.48;1.77;;;18.00;73.80;;;;;;5003481;28;20041;-67
2023/10/18 09:06:09;;;;;;;9.15;1.30;;;18.00;74.10;;;;;;4992648;28;20061;-66
2023/10/18 09:09:00;;;;;;;5.68;1.08;;;17.90;74.70;;;;;;4999513;28;20038;-67
2023/10/18 09:11:31;;;;;;;5.57;0.90;;;17.90;75.10;;;;;;5002161;28;20037;-66
2023/10/18 09:14:07;;;;;;;8.73;0.95;;;17.90;75.30;;;;;;4988643;28;20030;-69
2023/10/18 09:16:46;;;;;;;8.82;1.73;;;17.80;75.40;;;;;;5010819;28;20038;-67
2023/10/18 09:19:14;;;;;;;8.18;1.40;;;17.80;75.60;;;;;;5011560;28;20037;-67
2023/10/18 09:24:12;;;;;;;5.60;1.00;;;17.80;76.40;;;;;;4996436;28;20125;-67
2023/10/18 09:26:42;;;;;;;6.03;1.00;;;17.80;76.80;;;;;;5009517;28;20030;-68
2023/10/18 09:29:10;;;;;;;6.75;1.23;;;17.70;77.00;;;;;;5003482;28;20042;-67
2023/10/18 09:32:19;;;;;;;7.05;1.45;;;17.70;77.20;;;;;;4991577;28;20022;-68
2023/10/18 09:34:42;;;;;;;3.80;1.30;;;17.60;77.90;;;;;;5006880;28;20045;-67
2023/10/18 09:37:12;;;;;;;5.93;1.05;;;17.60;78.10;;;;;;4999633;28;20387;-67
2023/10/18 09:39:43;;;;;;;7.57;1.30;;;17.60;78.30;;;;;;4997451;28;20541;-67
2023/10/18 09:42:15;;;;;;;4.20;1.20;;;17.40;78.90;;;;;;4990644;28;20038;-68
2023/10/18 09:44:43;;;;;;;3.53;1.17;;;17.40;79.20;;;;;;4997114;28;20046;-67
2023/10/18 09:47:10;;;;;;;9.80;2.10;;;17.50;79.20;;;;;;4991703;28;20091;-68
2023/10/18 09:49:43;;;;;;;7.72;2.28;;;17.50;79.40;;;;;;4990585;28;20026;-67
2023/10/18 09:52:13;;;;;;;8.23;1.65;;;17.30;80.00;;;;;;5004950;28;20087;-67
2023/10/18 09:54:52;;;;;;;9.40;1.70;;;17.30;80.80;;;;;;5010165;28;20483;-66
2023/10/18 09:57:26;;;;;;;5.97;1.25;;;17.30;80.90;;;;;;5004510;28;20029;-66
2023/10/18 10:00:16;;;;;;;8.80;1.30;;;17.10;80.80;;;;;;4997165;28;20080;-66
2023/10/18 10:02:52;;;;;;;10.35;1.00;;;16.80;82.30;;;;;;5007986;28;20105;-65
2023/10/18 10:05:25;;;;;;;4.55;1.20;;;16.60;83.10;;;;;;5006346;28;20041;-66
2023/10/18 10:08:07;;;;;;;6.82;1.70;;;16.60;83.70;;;;;;5009277;28;20038;-68
2023/10/18 10:10:46;;;;;;;7.03;1.23;;;16.40;84.10;;;;;;4977156;28;20122;-67
2023/10/18 10:13:19;;;;;;;6.35;1.60;;;16.40;84.40;;;;;;5011849;28;20378;-67
2023/10/18 10:16:03;;;;;;;10.02;1.38;;;16.30;84.80;;;;;;5000893;28;20064;-67
2023/10/18 10:18:42;;;;;;;5.65;1.70;;;16.30;85.30;;;;;;4996108;28;20045;-67
2023/10/18 10:21:12;;;;;;;6.75;1.50;;;16.20;85.90;;;;;;4986621;28;20054;-67
2023/10/18 10:23:41;;;;;;;8.93;1.42;;;16.20;85.90;;;;;;5001237;28;20476;-67
2023/10/18 10:26:13;;;;;;;5.15;0.90;;;16.20;86.20;;;;;;4989610;28;20382;-68
2023/10/18 10:32:07;;;;;;;5.88;1.38;;;16.40;86.30;;;;;;4998289;28;20045;-67
2023/10/18 10:34:37;;;;;;;6.30;1.17;;;16.50;86.20;;;;;;4992157;28;20077;-67
2023/10/18 10:37:08;;;;;;;4.85;1.20;;;16.60;86.20;;;;;;5012983;28;20450;-67
2023/10/18 10:42:43;;;;;;;5.35;0.88;;;16.70;86.10;;;;;;4978296;28;20034;-65
2023/10/18 10:47:50;;;;;;;8.55;1.15;;;16.80;85.90;;;;;;5004003;28;20034;-66
2023/10/18 10:50:42;;;;;;;2.72;0.70;;;16.80;85.90;;;;;;5002127;28;20029;-66
2023/10/18 10:53:10;;;;;;;4.75;1.17;;;16.90;86.10;;;;;;4993084;28;20053;-68
2023/10/18 10:55:38;;;;;;;6.00;1.05;;;16.90;85.80;;;;;;4996316;28;20034;-67
2023/10/18 10:58:17;;;;;;;6.53;1.25;;;17.00;85.90;;;;;;4995985;28;20434;-67
2023/10/18 11:01:04;;;;;;;5.57;0.75;;;17.00;85.80;;;;;;4993813;28;20080;-66
2023/10/18 11:03:55;;;;;;;6.47;1.10;;;17.10;85.40;;;;;;5003266;28;20356;-66
2023/10/18 11:06:27;;;;;;;5.25;1.10;;;17.00;85.30;;;;;;4994755;28;20482;-66
2023/10/18 11:08:54;;;;;;;5.13;1.30;;;17.00;85.50;;;;;;5011737;28;20037;-68
2023/10/18 11:11:26;;;;;;;2.67;0.90;;;17.00;85.90;;;;;;5008726;28;20213;-66
2023/10/18 11:13:54;;;;;;;11.02;1.40;;;17.00;85.80;;;;;;5009361;28;20034;-66
2023/10/18 11:16:21;;;;;;;4.55;0.75;;;17.00;85.80;;;;;;5002387;28;20062;-66
2023/10/18 11:18:49;;;;;;;7.85;1.33;;;17.00;85.90;;;;;;4997316;28;20034;-67
2023/10/18 11:21:24;;;;;;;4.63;1.05;;;17.10;85.80;;;;;;4996373;28;20040;-66
2023/10/18 11:24:02;;;;;;;4.53;1.40;;;17.00;85.70;;;;;;4993438;28;20027;-67
2023/10/18 11:26:35;;;;;;;2.80;1.08;;;17.00;85.90;;;;;;4982541;28;20031;-67
2023/10/18 11:29:05;;;;;;;11.25;1.52;;;17.00;86.10;;;;;;4994601;28;20049;-66
2023/10/18 11:31:37;;;;;;;7.70;1.25;;;17.00;86.10;;;;;;5007370;28;20050;-67
2023/10/18 11:34:05;;;;;;;5.60;1.20;;;17.00;86.00;;;;;;4993825;28;20113;-66
2023/10/18 11:36:39;;;;;;;12.05;1.65;;;17.00;86.10;;;;;;4994331;28;20045;-67
2023/10/18 11:39:23;;;;;;;4.35;1.20;;;17.00;86.30;;;;;;5006901;28;20131;-68
2023/10/18 11:41:53;;;;;;;3.80;1.15;;;17.00;86.40;;;;;;5002511;28;20033;-66
2023/10/18 11:44:31;;;;;;;8.70;1.50;;;16.90;86.40;;;;;;5002073;28;20026;-66
2023/10/18 11:47:03;;;;;;;;;;;16.90;86.70;;;;;;5000340;28;20080;-65
2023/10/18 11:49:39;;;;;;;5.75;1.13;;;16.90;86.50;;;;;;4999262;28;19925;-67
2023/10/18 11:52:21;;;;;;;7.63;1.20;;;16.90;86.80;;;;;;4996338;28;20029;-67
2023/10/18 11:54:52;;;;;;;6.45;1.40;;;16.90;86.80;;;;;;4992283;28;20402;-67
2023/10/18 11:57:34;;;;;;;4.82;1.30;;;16.90;86.40;;;;;;4996236;28;20048;-66
2023/10/18 12:03:05;;;;;;;5.18;1.10;;;16.90;86.80;;;;;;4946627;28;20131;-67
2023/10/18 12:05:33;;;;;;;4.65;1.02;;;16.90;86.90;;;;;;4983771;28;20039;-66
2023/10/18 12:08:05;;;;;;;4.32;1.00;;;16.90;87.20;;;;;;4992478;28;20056;-66
2023/10/18 12:10:36;;;;;;;5.28;0.95;;;16.80;87.10;;;;;;4985435;28;20124;-65
2023/10/18 12:13:06;;;;;;;6.63;1.42;;;16.80;87.20;;;;;;4993778;28;20128;-66
2023/10/18 12:15:37;;;;;;;4.25;0.93;;;16.70;87.30;;;;;;5003997;28;20030;-66
2023/10/18 12:18:06;;;;;;;8.13;1.20;;;16.70;87.70;;;;;;5005123;28;20483;-66
2023/10/18 12:20:43;;;;;;;5.13;0.80;;;16.60;87.90;;;;;;5003554;28;20045;-66
2023/10/18 12:23:18;;;;;;;3.58;0.98;;;16.50;88.20;;;;;;5009745;28;20100;-67
2023/10/18 12:25:46;;;;;;;10.80;1.10;;;16.50;88.50;;;;;;5009762;28;20533;-66
2023/10/18 12:28:35;;;;;;;7.20;0.90;;;16.30;88.80;;;;;;4994827;28;20042;-67
2023/10/18 12:31:12;;;;;;;8.50;0.90;;;16.30;89.30;;;;;;5001390;28;20027;-67
2023/10/18 12:33:48;;;;;;;5.10;0.82;;;16.30;89.10;;;;;;4999543;28;20080;-68
2023/10/18 12:36:22;;;;;;;5.97;0.95;;;16.20;89.50;;;;;;5007730;28;20050;-66
2023/10/18 12:38:55;;;;;;;8.00;1.60;;;16.20;89.60;;;;;;4975602;28;20540;-66
2023/10/18 12:41:40;;;;;;;7.25;1.30;;;16.20;89.80;;;;;;4988653;28;20394;-67
2023/10/18 12:44:11;;;;;;;5.15;0.90;;;16.30;90.00;;;;;;4994766;28;20054;-68
2023/10/18 12:46:55;;;;;;;5.57;1.13;;;16.20;89.90;;;;;;5009017;28;20376;-67
2023/10/18 12:49:22;;;;;;;8.85;1.25;;;16.20;90.00;;;;;;4994238;28;20475;-65
2023/10/18 12:52:00;;;;;;;7.50;0.80;;;16.20;90.10;;;;;;4995295;28;20041;-68
2023/10/18 12:54:51;;;;;;;5.80;1.20;;;16.10;90.10;;;;;;4977852;28;20041;-65
2023/10/18 12:57:20;;;;;;;5.65;1.00;;;16.10;90.30;;;;;;4993667;28;20049;-66
2023/10/18 13:05:12;;;;;;;6.03;1.10;;;16.10;90.30;;;;;;4992452;28;20486;-67
2023/10/18 13:07:43;;;;;;;5.40;1.00;;;16.00;90.40;;;;;;4995470;28;20048;-66
2023/10/18 13:10:12;;;;;;;4.45;1.30;;;16.00;90.50;;;;;;5011458;28;20026;-66
2023/10/18 13:13:04;;;;;;;6.30;1.40;;;16.00;90.60;;;;;;4998823;28;20023;-67
2023/10/18 13:15:28;;;;;;;8.20;1.02;;;16.00;90.60;;;;;;4999397;28;20121;-66
2023/10/18 13:17:56;;;;;;;3.05;0.90;;;16.00;90.60;;;;;;5008550;28;20084;-66
2023/10/18 13:20:24;;;;;;;6.85;1.10;;;16.00;90.70;;;;;;4991469;28;20027;-67
2023/10/18 13:22:55;;;;;;;7.97;0.88;;;16.00;90.80;;;;;;4996592;28;20029;-67
2023/10/18 13:25:49;;;;;;;8.02;1.20;;;15.90;90.90;;;;;;5008791;28;20109;-68
2023/10/18 13:31:22;;;;;;;9.25;0.98;;;15.90;91.00;;;;;;4983481;28;20113;-68
2023/10/18 13:33:52;;;;;;;12.43;1.13;;;15.90;91.10;;;;;;5004577;28;20055;-66
2023/10/18 13:36:23;;;;;;;4.82;1.08;;;16.00;91.20;;;;;;5007476;28;20103;-67
2023/10/18 13:38:51;;;;;;;4.25;1.00;;;16.00;91.00;;;;;;5004826;28;20027;-67
2023/10/18 13:41:19;;;;;;;7.85;1.20;;;16.00;91.10;;;;;;4999491;28;20025;-67
2023/10/18 13:43:46;;;;;;;10.23;1.40;;;16.10;91.10;;;;;;5008819;28;20118;-67
2023/10/18 13:46:19;;;;;;;9.15;1.63;;;16.00;91.00;;;;;;4993405;28;20061;-69
2023/10/18 13:48:52;;;;;;;4.43;1.38;;;16.10;91.10;;;;;;5001094;28;20053;-66
2023/10/18 13:51:19;;;;;;;6.43;1.05;;;16.10;91.20;;;;;;4998831;28;20034;-65
2023/10/18 13:53:47;;;;;;;7.13;1.17;;;16.10;91.30;;;;;;4996105;28;20057;-65
2023/10/18 13:56:15;;;;;;;11.85;1.30;;;16.10;91.20;;;;;;4995305;28;20030;-66
2023/10/18 13:58:43;;;;;;;5.20;0.90;;;16.10;91.00;;;;;;5002866;28;20132;-67
2023/10/18 14:01:22;;;;;;;8.73;1.75;;;16.00;91.10;;;;;;5014455;28;20113;-67
2023/10/18 14:03:51;;;;;;;6.45;1.60;;;16.00;91.20;;;;;;5013835;28;20115;-67
2023/10/18 14:06:21;;;;;;;6.78;1.02;;;15.90;91.30;;;;;;5009939;28;20034;-68
2023/10/18 14:08:48;;;;;;;9.00;1.00;;;15.90;91.10;;;;;;5006539;28;20033;-67
2023/10/18 14:11:19;;;;;;;4.45;0.82;;;15.80;91.30;;;;;;4993538;28;20042;-67
2023/10/18 14:13:48;;;;;;;4.95;1.00;;;15.90;91.40;;;;;;4991631;28;20066;-67
2023/10/18 14:16:19;;;;;;;7.88;1.17;;;15.80;91.40;;;;;;5001248;28;20084;-67
2023/10/18 14:18:51;;;;;;;5.75;0.90;;;15.80;91.40;;;;;;4991786;28;20368;-67
2023/10/18 14:21:22;;;;;;;6.95;1.05;;;15.80;91.50;;;;;;4984685;28;20031;-66
2023/10/18 14:23:59;;;;;;;6.82;1.23;;;15.70;91.60;;;;;;4994868;28;20029;-67
2023/10/18 14:26:30;;;;;;;8.82;1.65;;;15.70;91.60;;;;;;4995281;28;20023;-67
2023/10/18 14:28:58;;;;;;;7.53;1.52;;;15.70;91.70;;;;;;4995037;28;20034;-67
2023/10/18 14:31:26;;;;;;;5.68;1.42;;;15.70;91.70;;;;;;5003491;28;20029;-67